Time;durP1;ratioP1;P1;durP2;ratioP2;P2;SDS_P1;SDS_P2;PMS_P1;PMS_P2;Temp;Humidity;BMP_temperature;BMP_pressure;BME280_temperature;BME280_humidity;BME280_pressure;Samples;Min_cycle;Max_cycle;Signal;HPM_P1;HPM_P2
2021/05/24 00:00:48;;;;;;;3.97;2.55;;;20.40;49.30;;;;;;5095795;28;20047;-38
2021/05/24 00:03:14;;;;;;;4.60;2.72;;;20.40;49.50;;;;;;5097600;28;20056;-39
2021/05/24 00:05:41;;;;;;;3.75;2.42;;;20.50;49.90;;;;;;5099629;28;20040;-39
2021/05/24 00:08:07;;;;;;;3.17;2.30;;;20.40;50.10;;;;;;5099779;28;20038;-38
2021/05/24 00:10:35;;;;;;;5.25;2.30;;;20.40;50.40;;;;;;5099935;28;20119;-39
2021/05/24 00:13:04;;;;;;;3.33;2.40;;;20.40;51.00;;;;;;5099726;28;20061;-38
2021/05/24 00:15:48;;;;;;;5.68;2.65;;;20.40;51.70;;;;;;5099883;28;20036;-39
2021/05/24 00:18:15;;;;;;;4.65;2.20;;;20.40;52.40;;;;;;5099831;28;20040;-38
2021/05/24 00:20:46;;;;;;;5.32;2.30;;;20.40;52.80;;;;;;5099256;28;20024;-39
2021/05/24 00:23:12;;;;;;;4.57;2.20;;;20.40;53.30;;;;;;5099712;28;20107;-38
2021/05/24 00:25:38;;;;;;;2.95;2.00;;;20.40;53.30;;;;;;5099743;28;20081;-39
2021/05/24 00:28:06;;;;;;;3.53;2.22;;;20.40;53.20;;;;;;5099483;28;20514;-39
2021/05/24 00:30:33;;;;;;;3.33;1.90;;;20.30;53.00;;;;;;5099674;28;20086;-39
2021/05/24 00:33:03;;;;;;;3.97;2.35;;;20.30;53.00;;;;;;5099178;28;20042;-38
2021/05/24 00:35:30;;;;;;;4.20;2.42;;;20.30;53.40;;;;;;5099133;28;20061;-39
2021/05/24 00:37:56;;;;;;;7.65;2.20;;;20.30;53.60;;;;;;5099302;28;20404;-38
2021/05/24 00:40:22;;;;;;;5.30;2.08;;;20.30;54.50;;;;;;5099274;28;20024;-39
2021/05/24 00:42:49;;;;;;;6.05;2.55;;;20.20;54.50;;;;;;5099135;28;20028;-38
2021/05/24 00:45:15;;;;;;;28.63;3.90;;;20.20;54.30;;;;;;5098856;28;20092;-38
2021/05/24 00:47:42;;;;;;;12.45;4.13;;;20.10;52.70;;;;;;5098668;28;20024;-38
2021/05/24 00:50:11;;;;;;;8.32;4.63;;;20.00;52.10;;;;;;5099204;28;20319;-39
2021/05/24 00:52:37;;;;;;;13.23;5.00;;;19.90;52.90;;;;;;5098810;28;20399;-39
2021/05/24 00:55:06;;;;;;;11.63;4.60;;;19.80;53.50;;;;;;5098974;28;20450;-39
2021/05/24 00:57:31;;;;;;;8.88;4.32;;;19.70;54.40;;;;;;5099164;28;20032;-38
2021/05/24 00:59:57;;;;;;;9.20;4.55;;;19.60;53.80;;;;;;5080483;28;20035;-38
2021/05/24 01:02:23;;;;;;;6.93;4.25;;;19.50;53.90;;;;;;5098862;28;20032;-38
2021/05/24 01:04:48;;;;;;;7.18;4.10;;;19.30;54.60;;;;;;5098563;28;20039;-38
2021/05/24 01:07:14;;;;;;;6.25;4.00;;;19.30;56.20;;;;;;5098911;28;20061;-38
2021/05/24 01:09:40;;;;;;;6.35;3.90;;;19.20;57.30;;;;;;5098509;28;20031;-38
2021/05/24 01:12:07;;;;;;;6.40;3.58;;;19.10;56.30;;;;;;5098703;28;20034;-38
2021/05/24 01:14:32;;;;;;;9.30;3.90;;;19.00;56.10;;;;;;5097589;28;20036;-39
2021/05/24 01:16:58;;;;;;;6.53;3.55;;;18.90;57.40;;;;;;5098439;28;20035;-39
2021/05/24 01:19:24;;;;;;;7.43;3.67;;;18.70;58.70;;;;;;5098625;28;20088;-39
2021/05/24 01:21:50;;;;;;;7.38;3.60;;;18.60;60.20;;;;;;5098424;28;20028;-38
2021/05/24 01:24:18;;;;;;;7.30;4.13;;;18.50;61.20;;;;;;5098404;28;20036;-39
2021/05/24 01:26:45;;;;;;;8.60;3.78;;;18.40;62.10;;;;;;5098192;28;20517;-38
2021/05/24 01:29:10;;;;;;;5.10;3.08;;;18.30;62.00;;;;;;5097844;28;20059;-38
2021/05/24 01:31:36;;;;;;;7.88;3.95;;;18.20;62.40;;;;;;5098254;28;20066;-39
2021/05/24 01:34:03;;;;;;;7.32;3.63;;;18.10;63.50;;;;;;5098076;28;20059;-38
2021/05/24 01:36:29;;;;;;;4.70;3.15;;;18.00;63.40;;;;;;5098296;28;20419;-38
2021/05/24 01:38:55;;;;;;;5.90;3.70;;;17.90;64.40;;;;;;5097602;28;20041;-38
2021/05/24 01:41:21;;;;;;;6.88;4.00;;;17.80;64.20;;;;;;5097905;28;20103;-38
2021/05/24 01:43:47;;;;;;;7.43;3.35;;;17.80;65.60;;;;;;5097584;28;20408;-38
2021/05/24 01:46:13;;;;;;;7.30;3.33;;;17.70;65.30;;;;;;5097990;28;20032;-38
2021/05/24 01:48:39;;;;;;;6.45;3.67;;;17.60;64.70;;;;;;5097498;28;20058;-39
2021/05/24 01:51:06;;;;;;;7.43;3.90;;;17.60;65.40;;;;;;5097814;28;20365;-38
2021/05/24 01:53:33;;;;;;;7.05;3.85;;;17.50;66.20;;;;;;5097498;28;20083;-38
2021/05/24 01:55:59;;;;;;;7.68;3.67;;;17.40;66.30;;;;;;5097403;28;20046;-38
2021/05/24 01:58:26;;;;;;;7.88;4.30;;;17.30;67.00;;;;;;5097506;28;20039;-38
2021/05/24 02:00:52;;;;;;;5.38;3.70;;;17.30;68.10;;;;;;5097413;28;20107;-38
2021/05/24 02:03:18;;;;;;;6.22;3.97;;;17.20;68.80;;;;;;5097207;28;20071;-38
2021/05/24 02:05:43;;;;;;;6.47;3.58;;;17.10;69.20;;;;;;5097490;28;20028;-39
2021/05/24 02:08:09;;;;;;;7.00;3.85;;;17.10;69.50;;;;;;5097641;28;20020;-38
2021/05/24 02:10:39;;;;;;;7.72;3.55;;;17.10;70.30;;;;;;5097354;28;20039;-38
2021/05/24 02:13:06;;;;;;;8.85;4.45;;;17.10;70.80;;;;;;5097431;28;20114;-38
2021/05/24 02:15:37;;;;;;;9.93;4.38;;;17.00;70.80;;;;;;5097407;28;20323;-38
2021/05/24 02:18:04;;;;;;;10.27;4.80;;;17.00;71.10;;;;;;5097526;28;20419;-38
2021/05/24 02:20:31;;;;;;;8.80;4.88;;;16.90;71.40;;;;;;5097341;28;20347;-38
2021/05/24 02:22:58;;;;;;;8.45;4.80;;;16.90;72.00;;;;;;5097240;28;20035;-38
2021/05/24 02:25:26;;;;;;;10.50;4.55;;;16.80;72.40;;;;;;5096230;28;20028;-38
2021/05/24 02:27:52;;;;;;;9.25;4.45;;;16.80;73.50;;;;;;5097124;28;20303;-38
2021/05/24 02:30:19;;;;;;;5.82;4.15;;;16.70;73.80;;;;;;5096950;28;20032;-39
2021/05/24 02:32:45;;;;;;;7.88;5.22;;;16.70;73.20;;;;;;5097143;28;20034;-38
2021/05/24 02:35:13;;;;;;;15.05;4.82;;;16.70;73.70;;;;;;5097106;28;20455;-38
2021/05/24 02:37:40;;;;;;;7.50;4.32;;;16.60;73.40;;;;;;5097145;28;20050;-39
2021/05/24 02:40:08;;;;;;;7.80;4.82;;;16.60;73.60;;;;;;5096592;28;20062;-38
2021/05/24 02:42:34;;;;;;;9.43;4.57;;;16.60;73.90;;;;;;5096964;28;20031;-38
2021/05/24 02:44:59;;;;;;;11.20;5.03;;;16.50;74.20;;;;;;5096406;28;20363;-38
2021/05/24 02:47:25;;;;;;;11.43;5.63;;;16.50;73.90;;;;;;5097014;28;20024;-38
2021/05/24 02:49:50;;;;;;;8.32;6.05;;;16.50;74.20;;;;;;5096661;28;20115;-38
2021/05/24 02:52:16;;;;;;;7.93;5.13;;;16.40;74.20;;;;;;5096872;28;20071;-38
2021/05/24 02:54:42;;;;;;;10.05;5.15;;;16.40;74.40;;;;;;5096008;28;20090;-38
2021/05/24 02:57:07;;;;;;;10.68;5.88;;;16.30;74.90;;;;;;5096619;28;20032;-38
2021/05/24 02:59:33;;;;;;;8.43;5.32;;;16.20;75.00;;;;;;5096597;28;20051;-38
2021/05/24 03:02:02;;;;;;;11.63;6.72;;;16.10;75.50;;;;;;5096707;28;20024;-38
2021/05/24 03:04:30;;;;;;;8.20;5.53;;;16.10;76.30;;;;;;5096395;28;20024;-39
2021/05/24 03:06:55;;;;;;;9.57;5.65;;;16.10;76.80;;;;;;5096387;28;20332;-38
2021/05/24 03:09:21;;;;;;;8.95;5.88;;;16.00;77.20;;;;;;5096138;28;20032;-39
2021/05/24 03:11:47;;;;;;;8.10;5.13;;;16.00;77.30;;;;;;5096157;28;20459;-38
2021/05/24 03:14:13;;;;;;;9.82;5.10;;;16.00;77.40;;;;;;5096310;28;20043;-38
2021/05/24 03:16:38;;;;;;;10.52;6.82;;;15.90;77.70;;;;;;5096344;28;20032;-38
2021/05/24 03:19:05;;;;;;;11.23;6.80;;;15.90;78.30;;;;;;5095910;28;20043;-38
2021/05/24 03:21:31;;;;;;;12.70;6.03;;;15.90;79.10;;;;;;5096190;28;20020;-38
2021/05/24 03:23:57;;;;;;;9.88;4.90;;;15.90;79.50;;;;;;5095802;28;20036;-38
2021/05/24 03:26:23;;;;;;;6.90;4.90;;;15.90;79.20;;;;;;5096336;28;20577;-38
2021/05/24 03:28:49;;;;;;;9.43;5.40;;;15.90;79.60;;;;;;5095914;28;20054;-38
2021/05/24 03:31:15;;;;;;;6.50;4.93;;;15.90;79.50;;;;;;5095908;28;20039;-38
2021/05/24 03:33:40;;;;;;;7.72;4.82;;;15.90;79.30;;;;;;5095525;28;20032;-38
2021/05/24 03:36:07;;;;;;;9.68;5.28;;;15.90;79.70;;;;;;5095689;28;20035;-38
2021/05/24 03:38:34;;;;;;;6.85;4.90;;;15.90;79.60;;;;;;5095308;28;20035;-38
2021/05/24 03:41:00;;;;;;;8.15;5.13;;;15.80;79.50;;;;;;5095753;28;20281;-38
2021/05/24 03:43:26;;;;;;;9.68;5.40;;;15.80;79.70;;;;;;5095442;28;20450;-38
2021/05/24 03:45:52;;;;;;;7.60;5.15;;;15.80;79.80;;;;;;5095621;28;20024;-38
2021/05/24 03:48:17;;;;;;;5.43;4.50;;;15.80;79.80;;;;;;5095288;28;20035;-38
2021/05/24 03:50:43;;;;;;;8.27;4.97;;;15.80;80.30;;;;;;5095787;28;20043;-39
2021/05/24 03:53:09;;;;;;;8.27;5.55;;;15.80;80.40;;;;;;5095602;28;20474;-38
2021/05/24 03:55:35;;;;;;;8.63;5.45;;;15.80;80.70;;;;;;5095648;28;20028;-39
2021/05/24 03:58:01;;;;;;;7.45;4.43;;;15.80;81.00;;;;;;5095986;28;20256;-38
2021/05/24 04:00:27;;;;;;;10.20;6.35;;;15.80;80.90;;;;;;5095470;28;20107;-38
2021/05/24 04:02:52;;;;;;;8.73;5.30;;;15.80;81.40;;;;;;5095792;28;20113;-38
2021/05/24 04:07:49;;;;;;;6.60;4.50;;;15.80;81.40;;;;;;5095542;28;20029;-38
2021/05/24 04:10:16;;;;;;;7.78;4.70;;;15.80;81.40;;;;;;5095461;28;20097;-38
2021/05/24 04:12:42;;;;;;;10.45;5.68;;;15.80;81.20;;;;;;5095805;28;20020;-38
2021/05/24 04:15:08;;;;;;;8.77;5.25;;;15.90;81.30;;;;;;5095468;28;20024;-38
2021/05/24 04:17:36;;;;;;;7.82;5.82;;;15.90;81.40;;;;;;5095513;28;20104;-38
2021/05/24 04:20:06;;;;;;;5.68;4.15;;;15.90;81.40;;;;;;5094932;28;20351;-38
2021/05/24 04:22:31;;;;;;;6.72;5.05;;;15.80;81.10;;;;;;5074187;28;20301;-38
2021/05/24 04:24:57;;;;;;;6.63;4.32;;;15.80;81.00;;;;;;5074723;28;20033;-38
2021/05/24 04:27:23;;;;;;;6.60;4.38;;;15.90;81.00;;;;;;5074941;28;20359;-38
2021/05/24 04:29:48;;;;;;;5.97;4.50;;;15.90;81.10;;;;;;5074092;28;20040;-38
2021/05/24 04:32:14;;;;;;;6.93;4.70;;;15.90;81.20;;;;;;5074625;28;20079;-38
2021/05/24 04:34:40;;;;;;;6.30;4.68;;;15.80;81.50;;;;;;5074635;28;20309;-38
2021/05/24 04:37:05;;;;;;;7.90;4.80;;;15.90;81.20;;;;;;5074745;28;20060;-38
2021/05/24 04:39:31;;;;;;;6.15;4.93;;;15.90;81.10;;;;;;5074724;28;20059;-38
2021/05/24 04:41:57;;;;;;;6.15;4.80;;;15.90;81.10;;;;;;5074433;28;20028;-38
2021/05/24 04:44:22;;;;;;;6.80;4.53;;;15.90;81.30;;;;;;5074784;28;20021;-38
2021/05/24 04:46:49;;;;;;;7.97;5.18;;;15.80;81.00;;;;;;5074528;28;20063;-38
2021/05/24 04:49:15;;;;;;;6.07;4.65;;;15.80;81.30;;;;;;5058817;28;20029;-38
2021/05/24 04:51:41;;;;;;;8.52;5.47;;;15.80;81.20;;;;;;5078453;28;20321;-39
2021/05/24 04:54:07;;;;;;;6.97;4.70;;;15.80;81.50;;;;;;5077923;28;20048;-38
2021/05/24 04:56:34;;;;;;;11.48;8.23;;;15.80;82.00;;;;;;5078147;28;20040;-38
2021/05/24 04:58:59;;;;;;;5.85;4.72;;;15.80;81.90;;;;;;5077562;28;20133;-38
2021/05/24 05:01:25;;;;;;;9.30;5.20;;;15.90;81.90;;;;;;5077082;28;20032;-39
2021/05/24 05:03:51;;;;;;;7.03;5.00;;;15.90;81.80;;;;;;5077146;28;20416;-39
2021/05/24 05:06:17;;;;;;;5.43;4.13;;;16.00;82.00;;;;;;5077555;28;20040;-39
2021/05/24 05:08:42;;;;;;;7.57;4.57;;;15.90;81.50;;;;;;5077851;28;20028;-38
2021/05/24 05:11:08;;;;;;;6.55;4.18;;;15.90;81.10;;;;;;5077685;28;20062;-38
2021/05/24 05:13:34;;;;;;;4.97;3.47;;;16.00;81.00;;;;;;5078100;28;20078;-38
2021/05/24 05:15:59;;;;;;;6.88;4.45;;;16.00;80.90;;;;;;5077121;28;20059;-38
2021/05/24 05:18:25;;;;;;;5.00;3.47;;;16.00;81.30;;;;;;5077872;28;20032;-38
2021/05/24 05:20:51;;;;;;;6.95;4.03;;;16.00;81.20;;;;;;5077203;28;20354;-40
2021/05/24 05:23:16;;;;;;;8.30;4.22;;;16.00;81.30;;;;;;5078105;28;20091;-38
2021/05/24 05:25:42;;;;;;;7.90;4.05;;;16.00;82.00;;;;;;5077555;28;20055;-38
2021/05/24 05:28:08;;;;;;;7.93;3.70;;;16.10;81.70;;;;;;5077773;28;20029;-38
2021/05/24 05:30:33;;;;;;;5.93;3.72;;;16.10;81.40;;;;;;5077727;28;20028;-39
2021/05/24 05:32:59;;;;;;;7.68;4.75;;;16.10;81.10;;;;;;5077586;28;20293;-38
2021/05/24 05:35:25;;;;;;;7.45;4.10;;;16.10;81.00;;;;;;5077441;28;20039;-39
2021/05/24 05:37:52;;;;;;;6.70;4.40;;;16.10;81.10;;;;;;5077797;28;20028;-38
2021/05/24 05:40:19;;;;;;;5.70;3.78;;;16.10;80.70;;;;;;5076253;28;20415;-38
2021/05/24 05:42:45;;;;;;;5.03;4.13;;;16.10;80.40;;;;;;5077425;28;20074;-39
2021/05/24 05:45:12;;;;;;;6.75;3.65;;;16.10;80.10;;;;;;5076827;28;20035;-38
2021/05/24 05:47:38;;;;;;;5.32;3.78;;;16.10;79.60;;;;;;5077353;28;20028;-38
2021/05/24 05:50:05;;;;;;;7.22;4.38;;;16.10;79.30;;;;;;5076778;28;20039;-38
2021/05/24 05:52:31;;;;;;;6.45;4.28;;;16.10;79.30;;;;;;5077371;28;20086;-38
2021/05/24 05:54:56;;;;;;;6.78;3.90;;;16.10;79.40;;;;;;5076705;28;20057;-38
2021/05/24 05:57:22;;;;;;;10.48;4.78;;;16.10;79.80;;;;;;5076930;28;20119;-39
2021/05/24 05:59:48;;;;;;;6.15;4.03;;;16.10;79.70;;;;;;5076372;28;20116;-38
2021/05/24 06:02:13;;;;;;;5.85;4.35;;;16.10;79.70;;;;;;5076475;28;20032;-38
2021/05/24 06:04:39;;;;;;;5.28;3.97;;;16.10;79.70;;;;;;5072320;28;20048;-39
2021/05/24 06:07:05;;;;;;;7.00;4.15;;;16.00;79.60;;;;;;5076743;28;20321;-39
2021/05/24 06:09:31;;;;;;;7.70;5.05;;;16.00;79.80;;;;;;5058114;28;20306;-39
2021/05/24 06:11:56;;;;;;;7.60;5.20;;;16.00;80.10;;;;;;5076668;28;20409;-38
2021/05/24 06:14:23;;;;;;;9.38;5.38;;;15.90;80.40;;;;;;5075994;28;20040;-38
2021/05/24 06:16:48;;;;;;;8.38;4.45;;;15.90;80.30;;;;;;5076350;28;20071;-38
2021/05/24 06:19:15;;;;;;;9.30;5.05;;;15.90;80.10;;;;;;5076030;28;20060;-39
2021/05/24 06:21:41;;;;;;;17.45;11.05;;;15.80;80.60;;;;;;5081257;28;20461;-43
2021/05/24 06:24:07;;;;;;;6.95;4.80;;;15.70;80.90;;;;;;5078513;28;20024;-38
2021/05/24 06:26:33;;;;;;;5.68;4.57;;;15.70;80.60;;;;;;5096166;28;20024;-38
2021/05/24 06:28:59;;;;;;;7.78;5.28;;;15.70;80.00;;;;;;5095921;28;20043;-38
2021/05/24 06:31:25;;;;;;;5.55;4.25;;;15.70;80.70;;;;;;5096671;28;20162;-38
2021/05/24 06:33:51;;;;;;;7.60;4.95;;;15.70;80.80;;;;;;5096099;28;20503;-38
2021/05/24 06:36:16;;;;;;;7.07;4.60;;;15.70;80.80;;;;;;5096019;28;20028;-38
2021/05/24 06:38:42;;;;;;;9.30;4.20;;;15.80;81.00;;;;;;5095830;28;20071;-38
2021/05/24 06:41:08;;;;;;;12.10;4.68;;;15.80;81.00;;;;;;5096089;28;20070;-38
2021/05/24 06:43:34;;;;;;;6.53;4.80;;;15.80;81.40;;;;;;5095839;28;20113;-39
2021/05/24 06:46:00;;;;;;;8.10;4.47;;;15.90;81.40;;;;;;5096265;28;20024;-38
2021/05/24 06:48:26;;;;;;;5.95;4.22;;;15.90;81.80;;;;;;5095334;28;20053;-38
2021/05/24 06:50:52;;;;;;;4.78;3.78;;;15.90;81.70;;;;;;5095792;28;20073;-38
2021/05/24 06:53:17;;;;;;;9.10;6.32;;;16.00;81.50;;;;;;5094906;28;20131;-38
2021/05/24 06:55:43;;;;;;;19.67;12.82;;;16.00;81.90;;;;;;5096107;28;20110;-39
2021/05/24 06:58:09;;;;;;;21.45;13.15;;;16.10;81.80;;;;;;5095441;28;20024;-39
2021/05/24 07:00:34;;;;;;;20.52;10.45;;;16.10;81.70;;;;;;5096049;28;20130;-39
2021/05/24 07:03:01;;;;;;;14.38;8.63;;;16.20;81.70;;;;;;5095495;28;20036;-39
2021/05/24 07:05:27;;;;;;;8.70;5.15;;;16.20;81.20;;;;;;5094927;28;20020;-38
2021/05/24 07:07:52;;;;;;;9.18;5.15;;;16.20;80.50;;;;;;5096188;28;20032;-39
2021/05/24 07:10:18;;;;;;;14.98;11.98;;;16.20;79.90;;;;;;5095094;28;20436;-38
2021/05/24 07:12:44;;;;;;;6.90;4.95;;;16.20;80.20;;;;;;5095285;28;20314;-39
2021/05/24 07:15:11;;;;;;;17.63;10.95;;;16.20;80.00;;;;;;5094923;28;20538;-39
2021/05/24 07:17:37;;;;;;;19.23;11.73;;;16.10;80.20;;;;;;5095919;28;20028;-39
2021/05/24 07:20:04;;;;;;;9.07;6.93;;;16.10;80.80;;;;;;5094949;28;20035;-39
2021/05/24 07:22:29;;;;;;;7.57;5.95;;;16.20;81.10;;;;;;5095791;28;20036;-39
2021/05/24 07:24:56;;;;;;;12.32;5.57;;;16.20;80.80;;;;;;5094587;28;20328;-39
2021/05/24 07:27:22;;;;;;;9.18;5.35;;;16.20;80.80;;;;;;5095601;28;20103;-39
2021/05/24 07:29:48;;;;;;;8.88;6.85;;;16.20;80.70;;;;;;5095091;28;20119;-39
2021/05/24 07:32:14;;;;;;;10.65;7.35;;;16.20;81.10;;;;;;5095563;28;20099;-39
2021/05/24 07:34:40;;;;;;;9.55;4.68;;;16.30;81.30;;;;;;5095321;28;20382;-39
2021/05/24 07:37:07;;;;;;;8.63;6.03;;;16.30;80.70;;;;;;5095443;28;20024;-39
2021/05/24 07:39:33;;;;;;;15.80;11.75;;;16.30;80.40;;;;;;5095265;28;20115;-39
2021/05/24 07:42:00;;;;;;;9.38;6.05;;;16.30;80.60;;;;;;5095295;28;20024;-39
2021/05/24 07:44:27;;;;;;;9.55;7.05;;;16.30;80.10;;;;;;5094748;28;20036;-38
2021/05/24 07:46:53;;;;;;;11.90;9.43;;;16.30;80.60;;;;;;5095397;28;20107;-39
2021/05/24 07:49:20;;;;;;;17.08;12.48;;;16.30;80.30;;;;;;5094807;28;20037;-39
2021/05/24 07:51:46;;;;;;;10.88;8.65;;;16.30;80.40;;;;;;5095235;28;20107;-39
2021/05/24 07:54:12;;;;;;;7.40;4.97;;;16.30;80.60;;;;;;5094229;28;20055;-39
2021/05/24 07:56:38;;;;;;;7.03;4.90;;;16.20;80.10;;;;;;5095150;28;20032;-39
2021/05/24 07:59:04;;;;;;;7.38;5.60;;;16.20;80.00;;;;;;5094884;28;20461;-38
2021/05/24 08:01:30;;;;;;;7.03;3.92;;;16.10;80.20;;;;;;5094896;28;20115;-38
2021/05/24 08:03:56;;;;;;;8.75;5.95;;;16.10;80.70;;;;;;5094143;28;20095;-38
2021/05/24 08:06:21;;;;;;;10.05;4.53;;;16.10;81.20;;;;;;5095238;28;20074;-38
2021/05/24 08:08:47;;;;;;;11.45;8.45;;;16.00;81.40;;;;;;5094266;28;20063;-39
2021/05/24 08:11:15;;;;;;;9.15;5.00;;;16.00;81.60;;;;;;5094998;28;20028;-38
2021/05/24 08:13:40;;;;;;;6.93;4.78;;;16.00;81.60;;;;;;5094555;28;20327;-38
2021/05/24 08:16:12;;;;;;;5.88;3.85;;;16.00;82.00;;;;;;5094762;28;20024;-38
2021/05/24 08:18:38;;;;;;;8.70;4.63;;;16.10;81.70;;;;;;5094755;28;20035;-38
2021/05/24 08:21:04;;;;;;;7.85;4.18;;;16.10;82.00;;;;;;5094683;28;20028;-38
2021/05/24 08:23:30;;;;;;;7.15;3.55;;;16.10;81.60;;;;;;5095368;28;20178;-38
2021/05/24 08:25:56;;;;;;;7.53;5.30;;;16.00;81.20;;;;;;5098493;28;20447;-38
2021/05/24 08:28:21;;;;;;;7.20;5.00;;;16.00;81.30;;;;;;5096164;28;20032;-39
2021/05/24 08:30:47;;;;;;;7.53;4.10;;;16.00;81.40;;;;;;5088661;28;20025;-39
2021/05/24 08:33:13;;;;;;;17.52;9.38;;;16.00;81.50;;;;;;5078610;28;20036;-38
2021/05/24 08:35:38;;;;;;;5.57;4.18;;;15.90;81.30;;;;;;5078254;28;20040;-38
2021/05/24 08:38:04;;;;;;;7.30;4.18;;;15.90;81.30;;;;;;5078421;28;20051;-38
2021/05/24 08:40:29;;;;;;;7.05;4.05;;;15.90;81.80;;;;;;5077725;28;20363;-38
2021/05/24 08:42:57;;;;;;;6.53;3.85;;;15.90;81.80;;;;;;5078113;28;20025;-38
2021/05/24 08:45:28;;;;;;;6.40;4.30;;;15.80;81.80;;;;;;5077606;28;20404;-38
2021/05/24 08:47:53;;;;;;;6.80;4.10;;;15.90;82.10;;;;;;5076865;28;20029;-38
2021/05/24 08:50:19;;;;;;;5.68;4.03;;;15.90;82.00;;;;;;5087109;28;20047;-38
2021/05/24 08:52:45;;;;;;;6.72;3.85;;;15.80;82.00;;;;;;5079873;28;20025;-38
2021/05/24 08:55:12;;;;;;;8.90;4.10;;;15.80;82.40;;;;;;5077704;28;20108;-38
2021/05/24 08:57:39;;;;;;;6.35;3.95;;;15.70;82.60;;;;;;5078116;28;20063;-38
2021/05/24 09:00:09;;;;;;;6.57;3.83;;;15.70;82.60;;;;;;5077212;28;20024;-38
2021/05/24 09:02:45;;;;;;;4.43;3.63;;;15.70;83.00;;;;;;5078011;28;20031;-38
2021/05/24 09:05:11;;;;;;;4.47;3.40;;;15.70;82.80;;;;;;5077417;28;20025;-38
2021/05/24 09:07:54;;;;;;;6.95;4.60;;;15.70;83.00;;;;;;5078155;28;20029;-38
2021/05/24 09:10:23;;;;;;;7.63;3.55;;;15.60;83.10;;;;;;5077195;28;20029;-38
2021/05/24 09:12:49;;;;;;;7.75;3.80;;;15.60;83.10;;;;;;5077471;28;20395;-38
2021/05/24 09:15:17;;;;;;;4.97;2.95;;;15.60;83.50;;;;;;5077131;28;20028;-38
2021/05/24 09:17:50;;;;;;;4.18;3.10;;;15.50;83.00;;;;;;5078004;28;20028;-38
2021/05/24 09:20:19;;;;;;;3.45;2.85;;;15.50;82.70;;;;;;5077010;28;20021;-38
2021/05/24 09:22:45;;;;;;;3.50;2.42;;;15.40;82.80;;;;;;5077470;28;20096;-39
2021/05/24 09:25:11;;;;;;;3.67;2.92;;;15.40;83.00;;;;;;5076789;28;20032;-38
2021/05/24 09:27:40;;;;;;;3.03;2.40;;;15.40;83.30;;;;;;5077318;28;20035;-38
2021/05/24 09:30:07;;;;;;;2.67;2.30;;;15.40;83.50;;;;;;5076833;28;20040;-38
2021/05/24 09:32:33;;;;;;;5.95;2.50;;;15.30;83.40;;;;;;5077332;28;20029;-38
2021/05/24 09:35:03;;;;;;;3.90;2.40;;;15.30;83.30;;;;;;5076693;28;20044;-38
2021/05/24 09:37:33;;;;;;;2.03;1.90;;;15.30;83.70;;;;;;5077588;28;20059;-38
2021/05/24 09:39:59;;;;;;;;;;;15.30;83.40;;;;;;5077161;28;20116;-38
2021/05/24 09:42:26;;;;;;;3.80;2.80;;;15.20;82.90;;;;;;5077174;28;19942;-37
2021/05/24 09:44:53;;;;;;;4.05;2.30;;;15.20;83.70;;;;;;5076388;28;20028;-38
2021/05/24 09:47:39;;;;;;;2.92;2.35;;;15.20;83.90;;;;;;5076723;28;20033;-38
2021/05/24 09:50:15;;;;;;;4.13;2.63;;;15.10;83.70;;;;;;5076535;28;20324;-37
2021/05/24 09:52:42;;;;;;;4.18;2.85;;;15.10;83.80;;;;;;5076669;28;20033;-38
2021/05/24 09:55:20;;;;;;;10.18;6.10;;;15.10;84.10;;;;;;5058708;28;20084;-38
2021/05/24 09:58:02;;;;;;;2.60;2.40;;;15.10;84.00;;;;;;5076919;28;20320;-37
2021/05/24 10:00:40;;;;;;;4.63;2.55;;;15.10;84.30;;;;;;5076511;28;20024;-37
2021/05/24 10:03:08;;;;;;;3.90;2.25;;;15.00;84.40;;;;;;5076887;28;20025;-37
2021/05/24 10:05:48;;;;;;;4.30;2.72;;;15.00;84.50;;;;;;5076154;28;20036;-38
2021/05/24 10:08:14;;;;;;;;;;;15.00;84.30;;;;;;5077281;28;20028;-37
2021/05/24 10:10:42;;;;;;;4.82;2.40;;;15.00;84.00;;;;;;5076029;28;19914;-37
2021/05/24 10:13:08;;;;;;;3.78;2.45;;;14.90;84.70;;;;;;5076711;28;20032;-37
2021/05/24 10:15:38;;;;;;;3.33;2.08;;;14.90;85.40;;;;;;5058338;28;20092;-38
2021/05/24 10:18:05;;;;;;;3.05;2.30;;;14.90;85.30;;;;;;5076407;28;20039;-37
2021/05/24 10:20:33;;;;;;;4.65;2.10;;;14.90;85.20;;;;;;5076019;28;20036;-38
2021/05/24 10:22:59;;;;;;;4.45;2.47;;;14.80;85.30;;;;;;5076544;28;20024;-37
2021/05/24 10:25:26;;;;;;;5.78;2.50;;;14.80;85.80;;;;;;5076007;28;20033;-37
2021/05/24 10:27:52;;;;;;;3.20;2.72;;;14.80;86.30;;;;;;5078236;28;20051;-37
2021/05/24 10:30:19;;;;;;;2.78;2.20;;;14.80;86.70;;;;;;5087431;28;20040;-38
2021/05/24 10:32:59;;;;;;;2.30;2.08;;;14.80;86.20;;;;;;5096934;28;20424;-37
2021/05/24 10:35:38;;;;;;;2.28;1.98;;;14.80;86.00;;;;;;5096270;28;20327;-37
2021/05/24 10:38:29;;;;;;;2.60;2.10;;;14.80;86.10;;;;;;5095742;28;20079;-37
2021/05/24 10:41:10;;;;;;;3.67;2.35;;;14.80;85.90;;;;;;5096209;28;20024;-37
2021/05/24 10:43:44;;;;;;;4.38;2.30;;;14.70;86.20;;;;;;5088836;28;20036;-37
2021/05/24 10:46:28;;;;;;;5.70;2.42;;;14.70;86.10;;;;;;5055122;28;20025;-38
2021/05/24 10:49:12;;;;;;;4.00;2.40;;;14.70;86.40;;;;;;5055658;28;20033;-37
2021/05/24 10:52:01;;;;;;;2.88;2.17;;;14.70;86.70;;;;;;5055698;28;20033;-38
2021/05/24 10:54:30;;;;;;;2.50;1.85;;;14.60;86.70;;;;;;5055211;28;20140;-38
2021/05/24 10:56:58;;;;;;;2.42;1.92;;;14.60;87.20;;;;;;5055785;28;20037;-37
2021/05/24 10:59:39;;;;;;;4.45;2.22;;;14.60;86.80;;;;;;5055596;28;20083;-38
2021/05/24 11:02:10;;;;;;;;;;;14.60;87.00;;;;;;5056227;28;20025;-39
2021/05/24 11:04:56;;;;;;;2.30;2.10;;;14.60;86.70;;;;;;5055234;28;19940;-39
2021/05/24 11:07:27;;;;;;;2.35;1.77;;;14.60;87.30;;;;;;5055765;28;20055;-39
2021/05/24 11:10:13;;;;;;;4.05;1.52;;;14.60;87.60;;;;;;5055234;28;20437;-38
2021/05/24 11:12:43;;;;;;;3.75;2.10;;;14.60;87.70;;;;;;5083965;28;20031;-38
2021/05/24 11:15:16;;;;;;;2.28;1.95;;;14.60;88.00;;;;;;5095209;28;20077;-38
2021/05/24 11:18:03;;;;;;;2.10;1.85;;;14.70;88.20;;;;;;5095913;28;20342;-38
2021/05/24 11:20:41;;;;;;;2.45;1.77;;;14.80;87.60;;;;;;5095804;28;20024;-38
2021/05/24 11:26:32;;;;;;;3.50;1.88;;;14.80;86.90;;;;;;5095730;28;20039;-38
2021/05/24 11:28:59;;;;;;;3.10;1.70;;;14.80;86.20;;;;;;5095359;28;20335;-38
2021/05/24 11:31:33;;;;;;;1.70;1.60;;;14.80;86.10;;;;;;5095592;28;20131;-38
2021/05/24 11:33:59;;;;;;;2.25;1.80;;;14.80;86.30;;;;;;5090106;28;20031;-38
2021/05/24 11:36:40;;;;;;;4.93;1.90;;;14.80;86.20;;;;;;5082672;28;20037;-38
2021/05/24 11:39:13;;;;;;;2.65;2.05;;;14.90;86.60;;;;;;5075348;28;20071;-38
2021/05/24 11:41:53;;;;;;;2.63;2.20;;;14.90;86.30;;;;;;5075438;28;20312;-39
2021/05/24 11:44:20;;;;;;;;;;;14.90;86.00;;;;;;5075826;28;20027;-39
2021/05/24 11:46:53;;;;;;;6.88;2.13;;;14.90;85.40;;;;;;5075208;28;20192;-38
2021/05/24 11:49:30;;;;;;;4.85;3.63;;;14.90;85.30;;;;;;5075035;28;20086;-38
2021/05/24 11:51:56;;;;;;;3.75;2.30;;;14.90;85.50;;;;;;5075147;28;20033;-38
2021/05/24 11:54:22;;;;;;;3.33;2.10;;;14.90;85.30;;;;;;5074776;28;20052;-38
2021/05/24 11:56:54;;;;;;;2.95;2.00;;;14.90;84.60;;;;;;5074921;28;20033;-38
2021/05/24 11:59:22;;;;;;;3.03;1.88;;;14.90;84.30;;;;;;5078840;28;20325;-39
2021/05/24 12:01:50;;;;;;;3.30;1.98;;;14.90;84.40;;;;;;5081324;28;20307;-38
2021/05/24 12:04:21;;;;;;;2.15;1.95;;;14.90;84.10;;;;;;5087629;28;20021;-39
2021/05/24 12:06:50;;;;;;;2.58;1.90;;;14.90;84.10;;;;;;5079242;28;20316;-39
2021/05/24 12:09:31;;;;;;;2.28;1.80;;;14.90;84.40;;;;;;5079292;28;20025;-38
2021/05/24 12:11:58;;;;;;;2.35;1.80;;;14.90;83.90;;;;;;5079093;28;20351;-38
2021/05/24 12:14:24;;;;;;;2.47;2.00;;;14.90;84.00;;;;;;5078501;28;20103;-38
2021/05/24 12:16:52;;;;;;;1.83;1.67;;;15.00;84.30;;;;;;5078243;28;20021;-40
2021/05/24 12:19:19;;;;;;;5.38;2.10;;;15.00;84.10;;;;;;5090291;28;20039;-39
2021/05/24 12:21:46;;;;;;;2.97;1.90;;;15.00;83.50;;;;;;5091707;28;20098;-37
2021/05/24 12:24:12;;;;;;;21.17;1.90;;;15.00;83.10;;;;;;5078557;28;20025;-38
2021/05/24 12:26:48;;;;;;;3.10;1.80;;;15.00;82.40;;;;;;5081624;28;20119;-38
2021/05/24 12:29:20;;;;;;;4.40;2.25;;;15.10;82.70;;;;;;5094528;28;20379;-38
2021/05/24 12:31:47;;;;;;;2.22;1.80;;;15.00;82.80;;;;;;5058446;28;20401;-39
2021/05/24 12:34:14;;;;;;;2.97;2.40;;;15.00;82.00;;;;;;5058313;28;20056;-38
2021/05/24 12:36:48;;;;;;;4.13;1.80;;;15.00;82.20;;;;;;5058724;28;20035;-38
2021/05/24 12:39:18;;;;;;;1.73;1.45;;;15.00;82.20;;;;;;5072260;28;20082;-38
2021/05/24 12:41:50;;;;;;;2.42;1.80;;;15.00;81.90;;;;;;5078111;28;20029;-37
2021/05/24 12:44:24;;;;;;;2.25;1.88;;;15.00;81.70;;;;;;5082922;28;20028;-37
2021/05/24 12:46:51;;;;;;;3.25;2.35;;;15.00;81.30;;;;;;5078211;28;20036;-38
2021/05/24 12:49:20;;;;;;;3.72;1.98;;;15.00;81.50;;;;;;5078525;28;20115;-38
2021/05/24 12:51:56;;;;;;;5.38;2.05;;;15.00;81.20;;;;;;5082685;28;20411;-38
2021/05/24 12:54:22;;;;;;;2.20;1.98;;;14.90;81.20;;;;;;5092810;28;20048;-38